sensor_id;sensor_type;location;lat;lon;timestamp;temperature;humidity
55121;DHT22;41019;48.512;9.036;2023-05-07T00:00:39;14.20;98.60
55121;DHT22;41019;48.512;9.036;2023-05-07T00:03:05;14.20;98.50
55121;DHT22;41019;48.512;9.036;2023-05-07T00:05:32;14.20;98.60
55121;DHT22;41019;48.512;9.036;2023-05-07T00:07:58;14.10;98.80
55121;DHT22;41019;48.512;9.036;2023-05-07T00:10:24;14.10;98.70
55121;DHT22;41019;48.512;9.036;2023-05-07T00:12:50;14.00;98.80
55121;DHT22;41019;48.512;9.036;2023-05-07T00:15:16;14.10;98.90
55121;DHT22;41019;48.512;9.036;2023-05-07T00:17:42;14.00;99.00
55121;DHT22;41019;48.512;9.036;2023-05-07T00:20:09;14.00;99.20
55121;DHT22;41019;48.512;9.036;2023-05-07T00:22:35;13.90;99.20
55121;DHT22;41019;48.512;9.036;2023-05-07T00:25:01;13.90;99.20
55121;DHT22;41019;48.512;9.036;2023-05-07T00:27:28;13.90;99.20
55121;DHT22;41019;48.512;9.036;2023-05-07T00:29:54;13.80;98.90
55121;DHT22;41019;48.512;9.036;2023-05-07T00:32:20;13.90;99.00
55121;DHT22;41019;48.512;9.036;2023-05-07T00:34:46;13.80;99.30
55121;DHT22;41019;48.512;9.036;2023-05-07T00:37:12;13.80;99.40
55121;DHT22;41019;48.512;9.036;2023-05-07T00:39:38;13.80;99.30
55121;DHT22;41019;48.512;9.036;2023-05-07T00:42:04;13.80;99.50
55121;DHT22;41019;48.512;9.036;2023-05-07T00:44:30;13.80;99.50
55121;DHT22;41019;48.512;9.036;2023-05-07T00:46:57;13.80;99.50
55121;DHT22;41019;48.512;9.036;2023-05-07T00:49:35;13.70;99.40
55121;DHT22;41019;48.512;9.036;2023-05-07T00:52:03;13.70;99.30
55121;DHT22;41019;48.512;9.036;2023-05-07T00:54:28;13.70;99.60
55121;DHT22;41019;48.512;9.036;2023-05-07T00:56:55;13.70;99.70
55121;DHT22;41019;48.512;9.036;2023-05-07T00:59:22;13.60;99.60
55121;DHT22;41019;48.512;9.036;2023-05-07T01:01:47;13.60;99.60
55121;DHT22;41019;48.512;9.036;2023-05-07T01:04:14;13.60;99.40
55121;DHT22;41019;48.512;9.036;2023-05-07T01:06:40;13.60;99.50
55121;DHT22;41019;48.512;9.036;2023-05-07T01:09:07;13.60;99.60
55121;DHT22;41019;48.512;9.036;2023-05-07T01:11:35;13.50;99.50
55121;DHT22;41019;48.512;9.036;2023-05-07T01:14:01;13.50;99.60
55121;DHT22;41019;48.512;9.036;2023-05-07T01:16:28;13.50;99.50
55121;DHT22;41019;48.512;9.036;2023-05-07T01:18:54;13.50;99.70
55121;DHT22;41019;48.512;9.036;2023-05-07T01:21:25;13.50;99.60
55121;DHT22;41019;48.512;9.036;2023-05-07T01:23:57;13.40;99.80
55121;DHT22;41019;48.512;9.036;2023-05-07T01:26:23;13.40;99.80
55121;DHT22;41019;48.512;9.036;2023-05-07T01:28:49;13.40;99.60
55121;DHT22;41019;48.512;9.036;2023-05-07T01:31:17;13.30;99.70
55121;DHT22;41019;48.512;9.036;2023-05-07T01:33:45;13.30;99.80
55121;DHT22;41019;48.512;9.036;2023-05-07T01:36:18;13.30;99.60
55121;DHT22;41019;48.512;9.036;2023-05-07T01:38:48;13.30;99.80
55121;DHT22;41019;48.512;9.036;2023-05-07T01:41:14;13.30;99.80
55121;DHT22;41019;48.512;9.036;2023-05-07T01:43:41;13.30;99.70
55121;DHT22;41019;48.512;9.036;2023-05-07T01:46:08;13.20;99.90
55121;DHT22;41019;48.512;9.036;2023-05-07T01:48:36;13.20;99.80
55121;DHT22;41019;48.512;9.036;2023-05-07T01:51:03;13.20;99.70
55121;DHT22;41019;48.512;9.036;2023-05-07T01:53:36;13.20;99.80
55121;DHT22;41019;48.512;9.036;2023-05-07T01:56:02;13.10;99.80
55121;DHT22;41019;48.512;9.036;2023-05-07T01:58:28;13.20;99.90
55121;DHT22;41019;48.512;9.036;2023-05-07T02:00:54;13.20;99.80
55121;DHT22;41019;48.512;9.036;2023-05-07T02:03:20;13.10;99.90
55121;DHT22;41019;48.512;9.036;2023-05-07T02:05:55;13.10;99.90
55121;DHT22;41019;48.512;9.036;2023-05-07T02:08:28;13.10;99.90
55121;DHT22;41019;48.512;9.036;2023-05-07T02:10:55;13.10;99.90
55121;DHT22;41019;48.512;9.036;2023-05-07T02:13:21;13.10;99.90
55121;DHT22;41019;48.512;9.036;2023-05-07T02:15:48;13.10;99.90
55121;DHT22;41019;48.512;9.036;2023-05-07T02:18:17;13.00;99.90
55121;DHT22;41019;48.512;9.036;2023-05-07T02:20:43;13.00;99.90
55121;DHT22;41019;48.512;9.036;2023-05-07T02:23:09;13.00;99.90
55121;DHT22;41019;48.512;9.036;2023-05-07T02:25:35;12.90;99.90
55121;DHT22;41019;48.512;9.036;2023-05-07T02:28:01;13.00;99.90
55121;DHT22;41019;48.512;9.036;2023-05-07T02:30:45;12.90;99.90
55121;DHT22;41019;48.512;9.036;2023-05-07T02:33:11;12.90;99.90
55121;DHT22;41019;48.512;9.036;2023-05-07T02:35:40;12.80;99.90
55121;DHT22;41019;48.512;9.036;2023-05-07T02:38:06;12.80;99.90
55121;DHT22;41019;48.512;9.036;2023-05-07T02:40:33;12.80;99.90
55121;DHT22;41019;48.512;9.036;2023-05-07T02:42:59;12.80;99.90
55121;DHT22;41019;48.512;9.036;2023-05-07T02:45:25;12.70;99.80
55121;DHT22;41019;48.512;9.036;2023-05-07T02:47:53;12.70;99.80
55121;DHT22;41019;48.512;9.036;2023-05-07T02:50:20;12.70;99.90
55121;DHT22;41019;48.512;9.036;2023-05-07T02:52:46;12.60;99.60
55121;DHT22;41019;48.512;9.036;2023-05-07T02:55:13;12.60;99.90
55121;DHT22;41019;48.512;9.036;2023-05-07T02:57:39;12.60;99.90
55121;DHT22;41019;48.512;9.036;2023-05-07T03:00:17;12.60;99.80
55121;DHT22;41019;48.512;9.036;2023-05-07T03:02:52;12.50;99.80
55121;DHT22;41019;48.512;9.036;2023-05-07T03:05:18;12.50;99.90
55121;DHT22;41019;48.512;9.036;2023-05-07T03:07:44;12.40;99.90
55121;DHT22;41019;48.512;9.036;2023-05-07T03:10:12;12.40;99.90
55121;DHT22;41019;48.512;9.036;2023-05-07T03:12:38;12.40;99.90
55121;DHT22;41019;48.512;9.036;2023-05-07T03:15:04;12.30;99.90
55121;DHT22;41019;48.512;9.036;2023-05-07T03:17:30;12.30;99.90
55121;DHT22;41019;48.512;9.036;2023-05-07T03:19:57;12.20;99.90
55121;DHT22;41019;48.512;9.036;2023-05-07T03:22:22;12.20;99.90
55121;DHT22;41019;48.512;9.036;2023-05-07T03:24:48;12.20;99.90
55121;DHT22;41019;48.512;9.036;2023-05-07T03:27:14;12.20;99.90
55121;DHT22;41019;48.512;9.036;2023-05-07T03:29:41;12.20;99.90
55121;DHT22;41019;48.512;9.036;2023-05-07T03:32:07;12.10;99.90
55121;DHT22;41019;48.512;9.036;2023-05-07T03:34:33;12.20;99.90
55121;DHT22;41019;48.512;9.036;2023-05-07T03:36:59;12.20;99.90
55121;DHT22;41019;48.512;9.036;2023-05-07T03:39:25;12.10;99.90
55121;DHT22;41019;48.512;9.036;2023-05-07T03:41:51;12.10;99.90
55121;DHT22;41019;48.512;9.036;2023-05-07T03:44:17;12.10;99.90
55121;DHT22;41019;48.512;9.036;2023-05-07T03:46:43;12.10;99.90
55121;DHT22;41019;48.512;9.036;2023-05-07T03:49:10;12.10;99.90
55121;DHT22;41019;48.512;9.036;2023-05-07T03:51:36;12.10;99.90
55121;DHT22;41019;48.512;9.036;2023-05-07T03:54:03;12.10;99.90
55121;DHT22;41019;48.512;9.036;2023-05-07T03:56:31;12.10;99.90
55121;DHT22;41019;48.512;9.036;2023-05-07T03:58:58;12.10;99.90
55121;DHT22;41019;48.512;9.036;2023-05-07T04:01:24;12.00;99.90
55121;DHT22;41019;48.512;9.036;2023-05-07T04:03:50;12.00;99.90
55121;DHT22;41019;48.512;9.036;2023-05-07T04:06:16;12.00;99.90
55121;DHT22;41019;48.512;9.036;2023-05-07T04:08:47;12.00;99.90
55121;DHT22;41019;48.512;9.036;2023-05-07T04:11:13;11.90;99.90
55121;DHT22;41019;48.512;9.036;2023-05-07T04:13:39;11.90;99.90
55121;DHT22;41019;48.512;9.036;2023-05-07T04:16:08;11.90;99.90
55121;DHT22;41019;48.512;9.036;2023-05-07T04:18:35;11.90;99.90
55121;DHT22;41019;48.512;9.036;2023-05-07T04:21:01;11.90;99.90
55121;DHT22;41019;48.512;9.036;2023-05-07T04:23:28;11.90;99.90
55121;DHT22;41019;48.512;9.036;2023-05-07T04:25:55;11.90;99.90
55121;DHT22;41019;48.512;9.036;2023-05-07T04:28:27;11.90;99.90
55121;DHT22;41019;48.512;9.036;2023-05-07T04:30:53;11.90;99.90
55121;DHT22;41019;48.512;9.036;2023-05-07T04:33:20;11.90;99.90
55121;DHT22;41019;48.512;9.036;2023-05-07T04:35:47;11.90;99.90
55121;DHT22;41019;48.512;9.036;2023-05-07T04:38:14;11.90;99.90
55121;DHT22;41019;48.512;9.036;2023-05-07T04:40:41;11.90;99.90
55121;DHT22;41019;48.512;9.036;2023-05-07T04:43:09;11.90;99.90
55121;DHT22;41019;48.512;9.036;2023-05-07T04:45:41;11.90;99.90
55121;DHT22;41019;48.512;9.036;2023-05-07T04:48:09;12.00;99.90
55121;DHT22;41019;48.512;9.036;2023-05-07T04:50:37;12.00;99.90
55121;DHT22;41019;48.512;9.036;2023-05-07T04:53:04;12.00;99.90
55121;DHT22;41019;48.512;9.036;2023-05-07T04:55:30;12.10;99.90
55121;DHT22;41019;48.512;9.036;2023-05-07T04:57:56;12.00;99.90
55121;DHT22;41019;48.512;9.036;2023-05-07T05:00:23;12.10;99.90
55121;DHT22;41019;48.512;9.036;2023-05-07T05:02:51;12.10;99.90
55121;DHT22;41019;48.512;9.036;2023-05-07T05:05:19;12.10;99.90
55121;DHT22;41019;48.512;9.036;2023-05-07T05:07:47;12.20;99.90
55121;DHT22;41019;48.512;9.036;2023-05-07T05:10:13;12.20;99.90
55121;DHT22;41019;48.512;9.036;2023-05-07T05:12:40;12.30;99.90
55121;DHT22;41019;48.512;9.036;2023-05-07T05:15:06;12.30;99.90
55121;DHT22;41019;48.512;9.036;2023-05-07T05:17:33;12.40;99.90
55121;DHT22;41019;48.512;9.036;2023-05-07T05:20:00;12.40;99.90
55121;DHT22;41019;48.512;9.036;2023-05-07T05:22:27;12.50;99.90
55121;DHT22;41019;48.512;9.036;2023-05-07T05:24:56;12.50;99.90
55121;DHT22;41019;48.512;9.036;2023-05-07T05:27:22;12.60;99.90
55121;DHT22;41019;48.512;9.036;2023-05-07T05:29:48;12.70;99.90
55121;DHT22;41019;48.512;9.036;2023-05-07T05:32:14;12.80;99.90
55121;DHT22;41019;48.512;9.036;2023-05-07T05:34:40;12.90;99.90
55121;DHT22;41019;48.512;9.036;2023-05-07T05:37:06;13.00;99.90
55121;DHT22;41019;48.512;9.036;2023-05-07T05:39:32;13.10;99.90
55121;DHT22;41019;48.512;9.036;2023-05-07T05:41:58;13.20;99.90
55121;DHT22;41019;48.512;9.036;2023-05-07T05:44:24;13.20;99.70
55121;DHT22;41019;48.512;9.036;2023-05-07T05:46:51;13.30;99.60
55121;DHT22;41019;48.512;9.036;2023-05-07T05:49:17;13.40;99.60
55121;DHT22;41019;48.512;9.036;2023-05-07T05:51:43;13.50;99.70
55121;DHT22;41019;48.512;9.036;2023-05-07T05:54:09;13.60;99.70
55121;DHT22;41019;48.512;9.036;2023-05-07T05:56:36;13.70;99.70
55121;DHT22;41019;48.512;9.036;2023-05-07T05:59:03;13.80;99.50
55121;DHT22;41019;48.512;9.036;2023-05-07T06:01:29;13.90;99.30
55121;DHT22;41019;48.512;9.036;2023-05-07T06:03:58;13.90;99.10
55121;DHT22;41019;48.512;9.036;2023-05-07T06:06:24;14.00;99.00
55121;DHT22;41019;48.512;9.036;2023-05-07T06:08:51;14.10;99.10
55121;DHT22;41019;48.512;9.036;2023-05-07T06:11:22;14.20;99.00
55121;DHT22;41019;48.512;9.036;2023-05-07T06:13:49;14.30;99.10
55121;DHT22;41019;48.512;9.036;2023-05-07T06:16:15;14.30;98.70
55121;DHT22;41019;48.512;9.036;2023-05-07T06:18:41;14.40;98.80
55121;DHT22;41019;48.512;9.036;2023-05-07T06:21:06;14.50;98.70
55121;DHT22;41019;48.512;9.036;2023-05-07T06:23:34;14.60;98.70
55121;DHT22;41019;48.512;9.036;2023-05-07T06:26:01;14.70;98.60
55121;DHT22;41019;48.512;9.036;2023-05-07T06:28:32;14.90;98.40
55121;DHT22;41019;48.512;9.036;2023-05-07T06:31:16;15.00;98.50
55121;DHT22;41019;48.512;9.036;2023-05-07T06:33:49;15.20;98.00
55121;DHT22;41019;48.512;9.036;2023-05-07T06:36:15;15.30;98.30
55121;DHT22;41019;48.512;9.036;2023-05-07T06:38:41;15.40;97.70
55121;DHT22;41019;48.512;9.036;2023-05-07T06:41:10;15.50;97.50
55121;DHT22;41019;48.512;9.036;2023-05-07T06:43:37;15.60;97.50
55121;DHT22;41019;48.512;9.036;2023-05-07T06:46:24;15.70;97.40
55121;DHT22;41019;48.512;9.036;2023-05-07T06:48:50;15.90;97.20
55121;DHT22;41019;48.512;9.036;2023-05-07T06:51:15;16.00;96.80
55121;DHT22;41019;48.512;9.036;2023-05-07T06:53:41;16.00;97.00
55121;DHT22;41019;48.512;9.036;2023-05-07T06:56:10;16.10;96.80
55121;DHT22;41019;48.512;9.036;2023-05-07T06:58:37;16.10;96.60
55121;DHT22;41019;48.512;9.036;2023-05-07T07:01:04;16.20;96.10
55121;DHT22;41019;48.512;9.036;2023-05-07T07:03:31;16.20;96.60
55121;DHT22;41019;48.512;9.036;2023-05-07T07:05:57;16.30;95.90
55121;DHT22;41019;48.512;9.036;2023-05-07T07:08:23;16.50;96.30
55121;DHT22;41019;48.512;9.036;2023-05-07T07:10:50;16.60;96.10
55121;DHT22;41019;48.512;9.036;2023-05-07T07:13:16;16.80;95.90
55121;DHT22;41019;48.512;9.036;2023-05-07T07:15:43;17.00;95.70
55121;DHT22;41019;48.512;9.036;2023-05-07T07:18:09;17.20;95.70
55121;DHT22;41019;48.512;9.036;2023-05-07T07:20:34;17.40;95.50
55121;DHT22;41019;48.512;9.036;2023-05-07T07:23:00;17.70;94.60
55121;DHT22;41019;48.512;9.036;2023-05-07T07:25:26;17.90;93.20
55121;DHT22;41019;48.512;9.036;2023-05-07T07:27:52;18.20;93.10
55121;DHT22;41019;48.512;9.036;2023-05-07T07:30:19;18.40;92.90
55121;DHT22;41019;48.512;9.036;2023-05-07T07:32:47;18.70;92.10
55121;DHT22;41019;48.512;9.036;2023-05-07T07:35:14;18.90;92.00
55121;DHT22;41019;48.512;9.036;2023-05-07T07:37:40;19.10;90.80
55121;DHT22;41019;48.512;9.036;2023-05-07T07:40:06;19.30;90.80
55121;DHT22;41019;48.512;9.036;2023-05-07T07:42:33;19.30;91.20
55121;DHT22;41019;48.512;9.036;2023-05-07T07:45:00;19.30;90.60
55121;DHT22;41019;48.512;9.036;2023-05-07T07:47:30;19.30;90.80
55121;DHT22;41019;48.512;9.036;2023-05-07T07:49:56;19.30;90.10
55121;DHT22;41019;48.512;9.036;2023-05-07T07:52:22;19.30;90.20
55121;DHT22;41019;48.512;9.036;2023-05-07T07:54:48;19.20;90.10
55121;DHT22;41019;48.512;9.036;2023-05-07T07:57:14;19.20;90.00
55121;DHT22;41019;48.512;9.036;2023-05-07T07:59:40;19.20;90.40
55121;DHT22;41019;48.512;9.036;2023-05-07T08:02:09;19.20;90.70
55121;DHT22;41019;48.512;9.036;2023-05-07T08:04:36;19.10;90.60
55121;DHT22;41019;48.512;9.036;2023-05-07T08:07:04;19.10;91.20
55121;DHT22;41019;48.512;9.036;2023-05-07T08:09:33;19.10;91.30
55121;DHT22;41019;48.512;9.036;2023-05-07T08:12:01;19.10;91.10
55121;DHT22;41019;48.512;9.036;2023-05-07T08:14:29;19.10;91.60
55121;DHT22;41019;48.512;9.036;2023-05-07T08:16:56;19.10;91.20
55121;DHT22;41019;48.512;9.036;2023-05-07T08:19:22;19.10;91.60
55121;DHT22;41019;48.512;9.036;2023-05-07T08:21:49;19.20;91.30
55121;DHT22;41019;48.512;9.036;2023-05-07T08:24:17;19.30;91.30
55121;DHT22;41019;48.512;9.036;2023-05-07T08:26:44;19.50;91.30
55121;DHT22;41019;48.512;9.036;2023-05-07T08:29:11;19.60;91.10
55121;DHT22;41019;48.512;9.036;2023-05-07T08:31:37;19.70;90.20
55121;DHT22;41019;48.512;9.036;2023-05-07T08:34:05;19.80;90.80
55121;DHT22;41019;48.512;9.036;2023-05-07T08:36:32;19.90;90.90
55121;DHT22;41019;48.512;9.036;2023-05-07T08:38:59;20.20;91.40
55121;DHT22;41019;48.512;9.036;2023-05-07T08:41:25;20.50;91.20
55121;DHT22;41019;48.512;9.036;2023-05-07T08:43:51;20.80;91.10
55121;DHT22;41019;48.512;9.036;2023-05-07T08:46:20;21.00;90.10
55121;DHT22;41019;48.512;9.036;2023-05-07T08:48:51;21.20;89.30
55121;DHT22;41019;48.512;9.036;2023-05-07T08:51:20;21.30;90.00
55121;DHT22;41019;48.512;9.036;2023-05-07T08:53:48;21.50;88.20
55121;DHT22;41019;48.512;9.036;2023-05-07T08:56:19;21.70;89.80
55121;DHT22;41019;48.512;9.036;2023-05-07T08:58:47;22.00;87.00
55121;DHT22;41019;48.512;9.036;2023-05-07T09:01:15;22.20;86.70
55121;DHT22;41019;48.512;9.036;2023-05-07T09:03:47;22.40;84.60
55121;DHT22;41019;48.512;9.036;2023-05-07T09:06:14;22.70;84.20
55121;DHT22;41019;48.512;9.036;2023-05-07T09:08:40;22.80;81.50
55121;DHT22;41019;48.512;9.036;2023-05-07T09:11:07;23.00;80.70
55121;DHT22;41019;48.512;9.036;2023-05-07T09:13:33;23.20;81.90
55121;DHT22;41019;48.512;9.036;2023-05-07T09:16:11;23.50;81.60
55121;DHT22;41019;48.512;9.036;2023-05-07T09:18:43;23.60;79.20
55121;DHT22;41019;48.512;9.036;2023-05-07T09:21:15;23.80;80.10
55121;DHT22;41019;48.512;9.036;2023-05-07T09:23:42;24.00;78.40
55121;DHT22;41019;48.512;9.036;2023-05-07T09:26:08;24.20;77.00
55121;DHT22;41019;48.512;9.036;2023-05-07T09:28:42;24.40;74.40
55121;DHT22;41019;48.512;9.036;2023-05-07T09:31:11;24.40;73.80
55121;DHT22;41019;48.512;9.036;2023-05-07T09:33:38;24.60;74.30
55121;DHT22;41019;48.512;9.036;2023-05-07T09:36:07;24.80;74.40
55121;DHT22;41019;48.512;9.036;2023-05-07T09:38:36;25.00;73.90
55121;DHT22;41019;48.512;9.036;2023-05-07T09:41:12;25.20;73.30
55121;DHT22;41019;48.512;9.036;2023-05-07T09:43:54;25.40;73.10
55121;DHT22;41019;48.512;9.036;2023-05-07T09:46:31;25.50;71.20
55121;DHT22;41019;48.512;9.036;2023-05-07T09:49:02;25.70;70.50
55121;DHT22;41019;48.512;9.036;2023-05-07T09:51:41;25.90;70.90
55121;DHT22;41019;48.512;9.036;2023-05-07T09:54:10;26.10;70.40
55121;DHT22;41019;48.512;9.036;2023-05-07T09:56:39;26.30;71.70
55121;DHT22;41019;48.512;9.036;2023-05-07T09:59:12;26.50;69.80
55121;DHT22;41019;48.512;9.036;2023-05-07T10:01:41;26.50;69.90
55121;DHT22;41019;48.512;9.036;2023-05-07T10:04:08;26.60;68.60
55121;DHT22;41019;48.512;9.036;2023-05-07T10:06:35;26.70;66.00
55121;DHT22;41019;48.512;9.036;2023-05-07T10:09:02;26.80;65.10
55121;DHT22;41019;48.512;9.036;2023-05-07T10:11:28;26.90;65.50
55121;DHT22;41019;48.512;9.036;2023-05-07T10:13:54;27.10;65.70
55121;DHT22;41019;48.512;9.036;2023-05-07T10:16:21;27.20;65.80
55121;DHT22;41019;48.512;9.036;2023-05-07T10:18:49;27.40;65.90
55121;DHT22;41019;48.512;9.036;2023-05-07T10:21:23;27.40;62.40
55121;DHT22;41019;48.512;9.036;2023-05-07T10:24:10;27.50;63.50
55121;DHT22;41019;48.512;9.036;2023-05-07T10:26:48;27.40;61.60
55121;DHT22;41019;48.512;9.036;2023-05-07T10:29:33;27.60;62.00
55121;DHT22;41019;48.512;9.036;2023-05-07T10:32:31;27.90;61.10
55121;DHT22;41019;48.512;9.036;2023-05-07T10:35:03;28.00;62.20
55121;DHT22;41019;48.512;9.036;2023-05-07T10:37:31;28.20;64.20
55121;DHT22;41019;48.512;9.036;2023-05-07T10:39:57;28.30;62.50
55121;DHT22;41019;48.512;9.036;2023-05-07T10:42:25;28.30;61.00
55121;DHT22;41019;48.512;9.036;2023-05-07T10:44:54;28.30;59.60
55121;DHT22;41019;48.512;9.036;2023-05-07T10:47:24;28.40;58.50
55121;DHT22;41019;48.512;9.036;2023-05-07T10:52:37;28.40;58.60
55121;DHT22;41019;48.512;9.036;2023-05-07T10:58:26;28.60;57.30
55121;DHT22;41019;48.512;9.036;2023-05-07T11:01:00;28.80;56.80
55121;DHT22;41019;48.512;9.036;2023-05-07T11:03:35;29.00;60.00
55121;DHT22;41019;48.512;9.036;2023-05-07T11:06:14;29.20;59.30
55121;DHT22;41019;48.512;9.036;2023-05-07T11:08:58;29.30;55.40
55121;DHT22;41019;48.512;9.036;2023-05-07T11:11:49;29.40;55.70
55121;DHT22;41019;48.512;9.036;2023-05-07T11:14:53;29.50;55.40
55121;DHT22;41019;48.512;9.036;2023-05-07T11:17:28;29.70;54.50
55121;DHT22;41019;48.512;9.036;2023-05-07T11:20:03;29.60;54.50
55121;DHT22;41019;48.512;9.036;2023-05-07T11:22:39;29.40;53.10
55121;DHT22;41019;48.512;9.036;2023-05-07T11:25:37;29.10;53.10
55121;DHT22;41019;48.512;9.036;2023-05-07T11:28:10;28.90;53.70
55121;DHT22;41019;48.512;9.036;2023-05-07T11:30:42;28.60;54.80
55121;DHT22;41019;48.512;9.036;2023-05-07T11:33:11;28.20;57.20
55121;DHT22;41019;48.512;9.036;2023-05-07T11:35:39;28.00;56.80
55121;DHT22;41019;48.512;9.036;2023-05-07T11:38:09;27.70;55.60
55121;DHT22;41019;48.512;9.036;2023-05-07T11:40:49;27.50;55.20
55121;DHT22;41019;48.512;9.036;2023-05-07T11:43:15;27.30;56.80
55121;DHT22;41019;48.512;9.036;2023-05-07T11:45:41;27.10;58.40
55121;DHT22;41019;48.512;9.036;2023-05-07T11:48:07;26.90;58.40
55121;DHT22;41019;48.512;9.036;2023-05-07T11:50:33;26.70;58.10
55121;DHT22;41019;48.512;9.036;2023-05-07T11:52:59;26.50;59.80
55121;DHT22;41019;48.512;9.036;2023-05-07T11:55:25;26.30;61.40
55121;DHT22;41019;48.512;9.036;2023-05-07T11:57:51;26.10;62.70
55121;DHT22;41019;48.512;9.036;2023-05-07T12:00:18;25.90;63.70
55121;DHT22;41019;48.512;9.036;2023-05-07T12:02:45;25.70;65.80
55121;DHT22;41019;48.512;9.036;2023-05-07T12:05:11;25.50;67.50
55121;DHT22;41019;48.512;9.036;2023-05-07T12:07:37;25.30;68.20
55121;DHT22;41019;48.512;9.036;2023-05-07T12:10:07;25.10;66.00
55121;DHT22;41019;48.512;9.036;2023-05-07T12:12:38;24.90;68.00
55121;DHT22;41019;48.512;9.036;2023-05-07T12:15:05;24.70;67.80
55121;DHT22;41019;48.512;9.036;2023-05-07T12:17:31;24.40;67.30
55121;DHT22;41019;48.512;9.036;2023-05-07T12:19:58;24.10;69.50
55121;DHT22;41019;48.512;9.036;2023-05-07T12:22:24;23.90;70.70
55121;DHT22;41019;48.512;9.036;2023-05-07T12:24:57;23.60;71.10
55121;DHT22;41019;48.512;9.036;2023-05-07T12:27:23;23.40;71.20
55121;DHT22;41019;48.512;9.036;2023-05-07T12:29:50;23.20;73.30
55121;DHT22;41019;48.512;9.036;2023-05-07T12:32:17;23.00;74.70
55121;DHT22;41019;48.512;9.036;2023-05-07T12:34:45;22.80;77.00
55121;DHT22;41019;48.512;9.036;2023-05-07T12:37:11;22.70;75.10
55121;DHT22;41019;48.512;9.036;2023-05-07T12:39:43;22.50;78.30
55121;DHT22;41019;48.512;9.036;2023-05-07T12:42:15;22.40;77.30
55121;DHT22;41019;48.512;9.036;2023-05-07T12:44:45;22.30;74.90
55121;DHT22;41019;48.512;9.036;2023-05-07T12:47:11;22.20;78.50
55121;DHT22;41019;48.512;9.036;2023-05-07T12:49:38;22.10;77.80
55121;DHT22;41019;48.512;9.036;2023-05-07T12:52:05;22.00;78.70
55121;DHT22;41019;48.512;9.036;2023-05-07T12:54:33;21.90;82.10
55121;DHT22;41019;48.512;9.036;2023-05-07T12:57:01;21.80;81.40
55121;DHT22;41019;48.512;9.036;2023-05-07T12:59:40;21.60;80.60
55121;DHT22;41019;48.512;9.036;2023-05-07T13:02:07;21.40;82.00
55121;DHT22;41019;48.512;9.036;2023-05-07T13:04:35;21.10;83.00
55121;DHT22;41019;48.512;9.036;2023-05-07T13:07:01;20.90;85.30
55121;DHT22;41019;48.512;9.036;2023-05-07T13:09:28;20.80;86.50
55121;DHT22;41019;48.512;9.036;2023-05-07T13:11:57;20.50;90.10
55121;DHT22;41019;48.512;9.036;2023-05-07T13:14:26;20.30;90.70
55121;DHT22;41019;48.512;9.036;2023-05-07T13:16:52;20.10;90.80
55121;DHT22;41019;48.512;9.036;2023-05-07T13:19:18;19.80;91.90
55121;DHT22;41019;48.512;9.036;2023-05-07T13:21:44;19.60;92.60
55121;DHT22;41019;48.512;9.036;2023-05-07T13:24:10;19.30;93.70
55121;DHT22;41019;48.512;9.036;2023-05-07T13:26:36;19.00;95.60
55121;DHT22;41019;48.512;9.036;2023-05-07T13:29:02;18.90;95.50
55121;DHT22;41019;48.512;9.036;2023-05-07T13:31:28;18.90;96.10
55121;DHT22;41019;48.512;9.036;2023-05-07T13:33:53;18.80;96.70
55121;DHT22;41019;48.512;9.036;2023-05-07T13:36:21;18.70;96.80
55121;DHT22;41019;48.512;9.036;2023-05-07T13:38:47;18.50;97.20
55121;DHT22;41019;48.512;9.036;2023-05-07T13:41:13;18.60;97.90
55121;DHT22;41019;48.512;9.036;2023-05-07T13:43:39;18.50;97.70
55121;DHT22;41019;48.512;9.036;2023-05-07T13:46:05;18.40;97.40
55121;DHT22;41019;48.512;9.036;2023-05-07T13:48:31;18.40;97.00
55121;DHT22;41019;48.512;9.036;2023-05-07T13:50:57;18.20;97.50
55121;DHT22;41019;48.512;9.036;2023-05-07T13:53:23;18.10;98.10
55121;DHT22;41019;48.512;9.036;2023-05-07T13:55:49;18.10;97.70
55121;DHT22;41019;48.512;9.036;2023-05-07T13:58:14;18.00;97.80
55121;DHT22;41019;48.512;9.036;2023-05-07T14:00:40;17.90;97.60
55121;DHT22;41019;48.512;9.036;2023-05-07T14:03:06;17.90;96.60
55121;DHT22;41019;48.512;9.036;2023-05-07T14:05:31;17.80;97.10
55121;DHT22;41019;48.512;9.036;2023-05-07T14:07:58;17.70;97.60
55121;DHT22;41019;48.512;9.036;2023-05-07T14:10:24;17.40;98.20
55121;DHT22;41019;48.512;9.036;2023-05-07T14:12:50;17.40;99.00
55121;DHT22;41019;48.512;9.036;2023-05-07T14:15:16;17.30;99.10
55121;DHT22;41019;48.512;9.036;2023-05-07T14:17:42;17.30;99.40
55121;DHT22;41019;48.512;9.036;2023-05-07T14:20:09;17.30;99.50
55121;DHT22;41019;48.512;9.036;2023-05-07T14:22:36;17.30;99.40
55121;DHT22;41019;48.512;9.036;2023-05-07T14:25:02;17.40;99.60
55121;DHT22;41019;48.512;9.036;2023-05-07T14:27:28;17.40;99.90
55121;DHT22;41019;48.512;9.036;2023-05-07T14:29:54;17.40;99.90
55121;DHT22;41019;48.512;9.036;2023-05-07T14:32:23;17.40;99.90
55121;DHT22;41019;48.512;9.036;2023-05-07T14:34:50;17.40;99.90
55121;DHT22;41019;48.512;9.036;2023-05-07T14:37:16;17.50;99.90
55121;DHT22;41019;48.512;9.036;2023-05-07T14:39:42;17.60;99.90
55121;DHT22;41019;48.512;9.036;2023-05-07T14:42:07;17.60;99.90
55121;DHT22;41019;48.512;9.036;2023-05-07T14:44:35;17.70;99.90
55121;DHT22;41019;48.512;9.036;2023-05-07T14:47:01;17.70;99.90
55121;DHT22;41019;48.512;9.036;2023-05-07T14:49:26;17.80;99.90
55121;DHT22;41019;48.512;9.036;2023-05-07T14:51:52;17.90;99.90
55121;DHT22;41019;48.512;9.036;2023-05-07T14:54:19;17.90;99.90
55121;DHT22;41019;48.512;9.036;2023-05-07T14:56:45;18.00;99.90
55121;DHT22;41019;48.512;9.036;2023-05-07T14:59:12;18.10;99.90
55121;DHT22;41019;48.512;9.036;2023-05-07T15:01:38;18.10;99.90
55121;DHT22;41019;48.512;9.036;2023-05-07T15:04:06;18.10;99.80
55121;DHT22;41019;48.512;9.036;2023-05-07T15:06:32;18.20;99.60
55121;DHT22;41019;48.512;9.036;2023-05-07T15:08:58;18.20;99.70
55121;DHT22;41019;48.512;9.036;2023-05-07T15:11:25;18.20;99.80
55121;DHT22;41019;48.512;9.036;2023-05-07T15:13:50;18.20;99.90
55121;DHT22;41019;48.512;9.036;2023-05-07T15:16:16;18.30;99.60
55121;DHT22;41019;48.512;9.036;2023-05-07T15:18:43;18.30;99.70
55121;DHT22;41019;48.512;9.036;2023-05-07T15:21:09;18.40;99.50
55121;DHT22;41019;48.512;9.036;2023-05-07T15:23:35;18.40;99.60
55121;DHT22;41019;48.512;9.036;2023-05-07T15:26:01;18.50;99.40
55121;DHT22;41019;48.512;9.036;2023-05-07T15:28:27;18.50;99.40
55121;DHT22;41019;48.512;9.036;2023-05-07T15:30:56;18.60;99.20
55121;DHT22;41019;48.512;9.036;2023-05-07T15:33:22;18.60;99.00
55121;DHT22;41019;48.512;9.036;2023-05-07T15:35:47;18.70;99.30
55121;DHT22;41019;48.512;9.036;2023-05-07T15:38:13;18.70;99.60
55121;DHT22;41019;48.512;9.036;2023-05-07T15:40:39;18.80;99.30